Time;durP1;ratioP1;P1;durP2;ratioP2;P2;SDS_P1;SDS_P2;PMS_P1;PMS_P2;Temp;Humidity;BMP_temperature;BMP_pressure;BME280_temperature;BME280_humidity;BME280_pressure;Samples;Min_cycle;Max_cycle;Signal;HPM_P1;HPM_P2
2023/09/06 00:00:49;;;;;;;7.20;4.05;;;;;;;16.33;100.00;96941.97;5062436;28;20157;-68
2023/09/06 00:03:14;;;;;;;11.00;4.22;;;;;;;16.24;100.00;96939.59;5056481;28;20044;-69
2023/09/06 00:05:41;;;;;;;9.93;4.82;;;;;;;16.03;100.00;96944.00;5061936;28;20052;-70
2023/09/06 00:08:12;;;;;;;13.40;5.32;;;;;;;15.76;100.00;96951.91;5056096;28;20036;-67
2023/09/06 00:10:39;;;;;;;7.50;4.82;;;;;;;15.49;100.00;96949.50;5057790;28;20040;-68
2023/09/06 00:13:07;;;;;;;10.73;5.20;;;;;;;15.37;100.00;96941.59;5043444;28;20481;-69
2023/09/06 00:15:33;;;;;;;7.10;4.95;;;;;;;15.27;100.00;96945.16;5064585;28;20044;-68
2023/09/06 00:17:58;;;;;;;12.75;5.45;;;;;;;15.24;100.00;96937.63;5065904;28;20144;-69
2023/09/06 00:20:24;;;;;;;10.43;5.20;;;;;;;15.29;100.00;96940.81;5041503;28;20444;-71
2023/09/06 00:23:01;;;;;;;8.02;4.43;;;;;;;15.27;100.00;96939.63;5063216;28;20063;-70
2023/09/06 00:25:29;;;;;;;10.30;4.95;;;;;;;15.17;100.00;96941.16;5057171;28;20040;-70
2023/09/06 00:27:56;;;;;;;10.75;5.18;;;;;;;15.18;100.00;96930.91;5043470;28;20097;-70
2023/09/06 00:30:21;;;;;;;10.07;4.97;;;;;;;15.06;100.00;96935.63;5038568;28;20044;-69
2023/09/06 00:32:48;;;;;;;10.57;5.38;;;;;;;14.91;100.00;96932.03;5061116;28;20109;-68
2023/09/06 00:35:16;;;;;;;10.40;5.40;;;;;;;14.81;100.00;96938.31;5057213;28;20036;-69
2023/09/06 00:37:42;;;;;;;10.07;5.20;;;;;;;14.78;100.00;96938.28;5061799;28;20127;-69
2023/09/06 00:40:17;;;;;;;9.10;4.63;;;;;;;14.77;100.00;96936.72;5057345;28;20071;-70
2023/09/06 00:42:48;;;;;;;7.88;4.70;;;;;;;14.76;100.00;96938.69;5061071;28;20040;-69
2023/09/06 00:45:13;;;;;;;7.03;4.40;;;;;;;14.65;100.00;96941.38;5055838;28;20037;-70
2023/09/06 00:47:42;;;;;;;9.52;5.65;;;;;;;14.60;100.00;96947.28;5050565;28;20048;-69
2023/09/06 00:50:07;;;;;;;8.70;4.75;;;;;;;14.56;100.00;96938.19;5079737;28;20032;-69
2023/09/06 00:52:33;;;;;;;11.10;4.93;;;;;;;14.62;100.00;96936.69;5045827;28;20033;-68
2023/09/06 00:55:01;;;;;;;8.23;5.03;;;;;;;14.64;100.00;96942.59;5082721;28;20051;-69
2023/09/06 00:57:29;;;;;;;8.52;4.75;;;;;;;14.44;100.00;96935.75;5078621;28;20051;-68
2023/09/06 00:59:58;;;;;;;10.00;4.85;;;;;;;14.21;100.00;96938.81;5086388;28;20044;-70
2023/09/06 01:02:24;;;;;;;9.40;5.22;;;;;;;14.07;100.00;96945.78;5079209;28;20048;-70
2023/09/06 01:04:49;;;;;;;8.32;5.22;;;;;;;14.01;100.00;96936.31;5085161;28;20040;-71
2023/09/06 01:07:16;;;;;;;10.65;5.47;;;;;;;13.94;100.00;96936.28;5079492;28;20119;-71
2023/09/06 01:09:41;;;;;;;11.32;5.10;;;;;;;13.91;100.00;96935.06;5085015;28;20040;-70
2023/09/06 01:12:10;;;;;;;9.70;4.60;;;;;;;13.87;100.00;96933.47;5079547;28;20108;-71
2023/09/06 01:14:40;;;;;;;8.75;5.35;;;;;;;13.81;100.00;96940.47;5083703;28;20445;-70
2023/09/06 01:17:09;;;;;;;8.27;5.55;;;;;;;13.76;100.00;96933.38;5061734;28;20467;-71
2023/09/06 01:19:36;;;;;;;;;;;;;;;13.68;100.00;96923.47;5086215;28;20040;-71
2023/09/06 01:22:22;;;;;;;9.20;5.22;;;;;;;13.70;100.00;96930.19;5066434;28;19916;-69
2023/09/06 01:24:49;;;;;;;8.65;5.30;;;;;;;13.79;100.00;96923.56;5083329;28;20040;-71
2023/09/06 01:27:15;;;;;;;8.88;5.20;;;;;;;13.86;100.00;96926.38;5063326;28;20082;-70
2023/09/06 01:29:41;;;;;;;7.80;5.10;;;;;;;13.71;100.00;96923.50;5079449;28;20037;-70
2023/09/06 01:32:06;;;;;;;10.43;5.50;;;;;;;13.62;100.00;96928.56;5069241;28;20067;-69
2023/09/06 01:34:32;;;;;;;7.30;5.30;;;;;;;13.55;100.00;96928.50;5063295;28;20841;-69
2023/09/06 01:36:57;;;;;;;11.18;5.05;;;;;;;13.57;100.00;96915.91;5062761;28;20466;-70
2023/09/06 01:39:23;;;;;;;10.93;5.10;;;;;;;13.70;100.00;96923.88;5041115;28;20455;-69
2023/09/06 01:41:48;;;;;;;10.25;5.72;;;;;;;13.79;100.00;96929.84;5063755;28;20041;-68
2023/09/06 01:44:14;;;;;;;10.18;4.70;;;;;;;13.75;100.00;96929.03;5058235;28;20040;-69
2023/09/06 01:46:40;;;;;;;10.48;5.45;;;;;;;13.73;100.00;96932.16;5063690;28;20043;-69
2023/09/06 01:49:06;;;;;;;7.70;5.05;;;;;;;13.65;100.00;96938.00;5060124;28;20652;-69
2023/09/06 01:51:31;;;;;;;11.75;5.47;;;;;;;13.57;100.00;96943.44;5063429;28;20139;-69
2023/09/06 01:53:57;;;;;;;6.68;5.20;;;;;;;13.61;100.00;96937.19;5066956;28;20043;-68
2023/09/06 01:56:22;;;;;;;8.50;4.63;;;;;;;13.67;100.00;96941.19;5083026;28;20098;-68
2023/09/06 01:58:47;;;;;;;7.53;4.68;;;;;;;13.67;100.00;96939.22;5072849;28;20075;-70
2023/09/06 02:01:13;;;;;;;9.10;5.45;;;;;;;13.47;100.00;96937.84;5020869;28;20052;-70
2023/09/06 02:03:38;;;;;;;7.68;4.82;;;;;;;13.48;100.00;96942.97;5042830;28;20040;-69
2023/09/06 02:06:04;;;;;;;8.52;5.40;;;;;;;13.51;100.00;96935.94;5040123;28;20131;-69
2023/09/06 02:08:30;;;;;;;8.70;5.72;;;;;;;13.53;100.00;96939.09;5043830;28;20045;-70
2023/09/06 02:10:56;;;;;;;10.43;5.70;;;;;;;13.49;100.00;96936.31;5043063;28;20041;-70
2023/09/06 02:13:21;;;;;;;12.93;5.60;;;;;;;13.57;100.00;96932.44;5037612;28;20049;-69
2023/09/06 02:15:47;;;;;;;7.85;5.57;;;;;;;13.50;100.00;96937.09;5043749;28;20076;-69
2023/09/06 02:18:15;;;;;;;10.88;5.95;;;;;;;13.34;100.00;96932.66;5039007;28;20140;-68
2023/09/06 02:20:44;;;;;;;12.57;6.03;;;;;;;13.34;100.00;96931.84;5042643;28;20143;-69
2023/09/06 02:23:10;;;;;;;7.40;5.88;;;;;;;13.22;100.00;96941.16;5038481;28;20049;-69
2023/09/06 02:25:35;;;;;;;11.23;6.28;;;;;;;13.26;100.00;96941.97;5050549;28;20036;-69
2023/09/06 02:28:07;;;;;;;9.30;6.10;;;;;;;13.33;100.00;96938.53;5062656;28;20044;-69
2023/09/06 02:30:37;;;;;;;8.60;5.90;;;;;;;13.28;100.00;96945.13;5043416;28;20098;-69
2023/09/06 02:33:08;;;;;;;10.90;6.00;;;;;;;13.40;100.00;96941.34;5060428;28;20048;-68
2023/09/06 02:35:35;;;;;;;10.55;5.70;;;;;;;13.51;100.00;96935.94;5063837;28;20052;-70
2023/09/06 02:38:00;;;;;;;11.20;6.70;;;;;;;13.54;100.00;96938.72;5063859;28;20404;-70
2023/09/06 02:40:26;;;;;;;8.82;6.00;;;;;;;13.44;100.00;96935.88;5061591;28;20132;-67
2023/09/06 02:42:53;;;;;;;10.43;6.10;;;;;;;13.48;100.00;96933.94;5063674;28;20123;-70
2023/09/06 02:45:22;;;;;;;7.93;5.38;;;;;;;13.52;100.00;96934.75;5040101;28;20139;-69
2023/09/06 02:47:50;;;;;;;7.65;5.38;;;;;;;13.50;100.00;96935.13;5045987;28;20399;-70
2023/09/06 02:50:23;;;;;;;9.15;5.53;;;;;;;13.55;100.00;96940.28;5058125;28;20040;-70
2023/09/06 02:52:50;;;;;;;12.80;5.50;;;;;;;13.53;100.00;96939.88;5062918;28;20032;-70
2023/09/06 02:55:16;;;;;;;10.63;5.38;;;;;;;13.38;100.00;96940.94;5021069;28;20394;-70
2023/09/06 02:57:43;;;;;;;9.57;5.80;;;;;;;12.99;100.00;96949.53;5045309;28;20033;-70
2023/09/06 03:00:25;;;;;;;12.88;6.28;;;;;;;12.78;100.00;96947.34;5040670;28;20044;-69
2023/09/06 03:03:05;;;;;;;11.55;5.65;;;;;;;12.74;100.00;96950.03;5085075;28;20041;-70
2023/09/06 03:05:31;;;;;;;9.30;5.40;;;;;;;12.79;100.00;96941.47;5027768;28;20106;-71
2023/09/06 03:07:56;;;;;;;8.20;5.63;;;;;;;12.82;100.00;96950.94;5063287;28;20048;-70
2023/09/06 03:10:23;;;;;;;11.27;6.00;;;;;;;12.79;100.00;96948.94;5057708;28;20036;-70
2023/09/06 03:12:56;;;;;;;10.82;5.50;;;;;;;12.69;100.00;96949.59;5043456;28;20066;-68
2023/09/06 03:15:28;;;;;;;8.98;6.00;;;;;;;12.79;100.00;96960.72;5041062;28;20067;-69
2023/09/06 03:17:54;;;;;;;8.80;5.55;;;;;;;12.63;100.00;96955.41;5063627;28;20218;-70
2023/09/06 03:20:42;;;;;;;10.63;6.05;;;;;;;12.54;100.00;96965.91;5056453;28;20656;-70
2023/09/06 03:23:18;;;;;;;10.77;5.80;;;;;;;12.38;100.00;96960.59;5057368;28;20110;-68
2023/09/06 03:25:47;;;;;;;9.32;5.75;;;;;;;12.28;100.00;96957.69;5028265;28;20104;-69
2023/09/06 03:28:14;;;;;;;8.77;6.00;;;;;;;12.37;100.00;96961.75;5057245;28;20385;-69
2023/09/06 03:30:41;;;;;;;9.38;5.22;;;;;;;12.39;100.00;96962.19;5043012;28;20087;-69
2023/09/06 03:33:06;;;;;;;12.18;5.63;;;;;;;12.54;100.00;96963.16;5057718;28;20051;-69
2023/09/06 03:35:32;;;;;;;7.80;5.20;;;;;;;12.67;100.00;96962.91;5061595;28;20155;-69
2023/09/06 03:37:58;;;;;;;8.70;5.53;;;;;;;12.73;100.00;96953.97;5061692;28;20051;-68
2023/09/06 03:40:37;;;;;;;8.80;5.75;;;;;;;12.76;100.00;96963.41;5057967;28;20605;-69
2023/09/06 03:43:17;;;;;;;7.53;5.10;;;;;;;12.59;100.00;96960.06;5059191;28;20390;-68
2023/09/06 03:45:50;;;;;;;12.07;5.75;;;;;;;12.36;100.00;96960.16;5061702;28;20036;-69
2023/09/06 03:48:20;;;;;;;8.25;5.40;;;;;;;12.42;100.00;96961.44;5040170;28;20044;-69
2023/09/06 03:50:48;;;;;;;8.80;5.70;;;;;;;12.48;100.00;96964.66;5061476;28;20037;-69
2023/09/06 03:53:15;;;;;;;11.85;5.93;;;;;;;12.40;100.00;96960.22;5039936;28;20124;-68
2023/09/06 03:55:41;;;;;;;8.20;5.82;;;;;;;12.27;100.00;96959.66;5063923;28;20117;-70
2023/09/06 03:58:07;;;;;;;11.63;6.20;;;;;;;12.28;100.00;96961.25;5073372;28;20078;-68
2023/09/06 04:00:39;;;;;;;8.85;6.57;;;;;;;12.19;100.00;96963.44;5062463;28;20053;-69
2023/09/06 04:03:07;;;;;;;10.63;6.20;;;;;;;12.02;100.00;96964.78;5059229;28;20136;-70
2023/09/06 04:05:34;;;;;;;10.07;6.03;;;;;;;12.02;100.00;96962.81;5078581;28;20074;-69
2023/09/06 04:08:04;;;;;;;10.98;6.32;;;;;;;11.95;100.00;96962.72;5080699;28;20062;-69
2023/09/06 04:12:55;;;;;;;13.10;6.27;;;;;;;11.85;100.00;96964.13;5065239;22;20041;-69
2023/09/06 04:15:22;;;;;;;10.23;7.10;;;;;;;11.77;100.00;96970.66;5028271;28;28715;-69
2023/09/06 04:17:58;;;;;;;9.60;6.43;;;;;;;11.69;100.00;96974.44;5060261;28;20704;-70
2023/09/06 04:20:27;;;;;;;9.60;6.47;;;;;;;11.67;100.00;96979.50;5055935;28;20163;-70
2023/09/06 04:23:00;;;;;;;9.70;6.00;;;;;;;11.92;100.00;96981.88;5040117;28;20120;-72
2023/09/06 04:25:26;;;;;;;9.63;6.55;;;;;;;12.08;100.00;96979.00;5039398;28;20138;-71
2023/09/06 04:27:54;;;;;;;9.02;6.20;;;;;;;12.19;100.00;96978.00;5042377;28;20037;-71
2023/09/06 04:30:24;;;;;;;11.85;5.95;;;;;;;12.29;100.00;96981.25;5041931;28;20045;-73
2023/09/06 04:32:50;;;;;;;10.75;6.13;;;;;;;12.31;100.00;96982.47;5042144;28;20040;-71
2023/09/06 04:35:16;;;;;;;10.15;6.10;;;;;;;12.38;100.00;96981.78;5037385;28;20533;-71
2023/09/06 04:37:42;;;;;;;8.85;6.18;;;;;;;12.32;100.00;96975.81;5045641;28;20059;-71
2023/09/06 04:40:14;;;;;;;14.45;5.97;;;;;;;12.27;100.00;96983.59;5040864;28;20867;-72
2023/09/06 04:42:40;;;;;;;10.30;6.45;;;;;;;12.28;100.00;96985.16;5018221;28;20069;-71
2023/09/06 04:45:09;;;;;;;11.00;6.45;;;;;;;12.28;100.00;96985.97;5040076;28;20064;-71
2023/09/06 04:47:34;;;;;;;10.73;6.82;;;;;;;12.24;100.00;96993.34;5046247;28;20041;-71
2023/09/06 04:50:00;;;;;;;18.90;6.75;;;;;;;12.20;100.00;96998.78;5042983;28;20379;-71
2023/09/06 04:52:27;;;;;;;11.73;6.63;;;;;;;12.12;100.00;96999.03;5028979;28;20049;-71
2023/09/06 04:54:52;;;;;;;10.32;6.75;;;;;;;11.95;100.00;97000.38;5043824;28;20131;-72
2023/09/06 04:57:18;;;;;;;11.73;6.65;;;;;;;11.85;100.00;97002.53;5024803;28;20131;-71
2023/09/06 04:59:43;;;;;;;12.60;7.55;;;;;;;11.85;100.00;97002.53;5062123;28;20043;-71
2023/09/06 05:02:09;;;;;;;8.68;6.32;;;;;;;12.04;100.00;97003.63;5040247;28;20131;-71
2023/09/06 05:04:36;;;;;;;9.35;6.40;;;;;;;12.19;100.00;97008.19;5063567;28;20419;-71
2023/09/06 05:07:05;;;;;;;12.13;6.55;;;;;;;12.22;100.00;97004.69;5064194;28;20616;-73
2023/09/06 05:09:32;;;;;;;8.63;6.40;;;;;;;12.25;100.00;97011.41;5045526;28;20049;-71
2023/09/06 05:11:57;;;;;;;12.43;5.95;;;;;;;12.37;100.00;97007.66;5061088;28;20485;-71
2023/09/06 05:14:22;;;;;;;11.63;6.63;;;;;;;12.51;100.00;97007.84;5054345;28;20037;-71
2023/09/06 05:16:48;;;;;;;8.70;5.85;;;;;;;12.72;100.00;97010.09;5064701;28;20374;-72
2023/09/06 05:19:21;;;;;;;14.13;6.60;;;;;;;13.42;100.00;97012.50;5049532;28;20139;-75
2023/09/06 05:21:46;;;;;;;9.93;6.05;;;;;;;14.26;100.00;97013.59;5061300;28;20740;-71
2023/09/06 05:24:12;;;;;;;11.15;5.90;;;;;;;15.26;100.00;97012.53;5060559;28;20051;-72
2023/09/06 05:26:39;;;;;;;10.30;5.43;;;;;;;16.39;100.00;97023.31;5045328;28;20425;-71
2023/09/06 05:29:05;;;;;;;10.20;5.28;;;;;;;17.27;100.00;97026.22;5038604;28;20041;-74
2023/09/06 05:31:30;;;;;;;10.55;5.50;;;;;;;17.52;98.38;97030.81;5005426;28;20131;-72
2023/09/06 05:33:55;;;;;;;8.25;5.32;;;;;;;18.06;94.40;97024.94;5024823;28;20153;-70
2023/09/06 05:36:21;;;;;;;12.05;5.63;;;;;;;19.08;85.42;97038.22;5016511;28;20049;-69
2023/09/06 05:38:47;;;;;;;10.50;5.88;;;;;;;19.16;78.73;97041.72;5045691;28;20045;-71
2023/09/06 05:41:12;;;;;;;8.55;5.38;;;;;;;19.15;84.56;97039.34;5039739;28;20140;-71
2023/09/06 05:43:38;;;;;;;9.38;5.75;;;;;;;19.39;78.96;97045.78;5043383;28;20532;-68
2023/09/06 05:46:03;;;;;;;12.32;5.10;;;;;;;19.34;84.18;97043.47;5041382;28;20067;-72
2023/09/06 05:48:29;;;;;;;10.63;5.20;;;;;;;19.86;80.23;97043.16;5036989;28;20037;-72
2023/09/06 05:50:54;;;;;;;11.52;5.18;;;;;;;20.46;75.75;97040.63;5042736;28;20048;-69
2023/09/06 05:53:19;;;;;;;9.43;4.72;;;;;;;21.67;67.74;97055.41;5029647;28;20040;-69
2023/09/06 05:55:45;;;;;;;7.72;4.68;;;;;;;22.12;63.71;97046.41;5039142;28;20037;-69
2023/09/06 05:58:11;;;;;;;9.98;5.20;;;;;;;22.01;60.64;97052.25;5053140;28;20037;-71
2023/09/06 06:00:37;;;;;;;11.52;5.68;;;;;;;20.36;66.95;97041.59;5065052;28;20048;-69
2023/09/06 06:03:03;;;;;;;7.28;5.10;;;;;;;20.23;72.15;97039.41;5062096;28;20404;-72
2023/09/06 06:05:28;;;;;;;8.18;5.20;;;;;;;20.31;74.34;97040.09;5017778;28;20049;-69
2023/09/06 06:07:57;;;;;;;9.02;6.22;;;;;;;21.20;69.50;97046.00;5023253;28;20045;-70
2023/09/06 06:10:23;;;;;;;8.15;5.20;;;;;;;21.76;63.18;97048.03;5035341;28;20198;-70
2023/09/06 06:12:48;;;;;;;8.70;4.97;;;;;;;22.26;62.54;97048.91;5038077;28;20045;-71
2023/09/06 06:15:13;;;;;;;8.10;4.93;;;;;;;23.28;57.66;97059.81;5035943;28;20523;-70
2023/09/06 06:17:40;;;;;;;6.65;4.43;;;;;;;23.66;55.23;97066.69;5043222;28;20696;-70
2023/09/06 06:20:07;;;;;;;8.10;4.28;;;;;;;23.81;55.83;97064.28;5037342;28;20127;-72
2023/09/06 06:22:40;;;;;;;9.20;4.68;;;;;;;23.68;54.91;97072.63;5040726;28;20045;-70
2023/09/06 06:25:07;;;;;;;14.27;4.97;;;;;;;23.14;56.60;97065.78;5036986;28;20033;-69
2023/09/06 06:27:33;;;;;;;9.05;4.75;;;;;;;23.10;58.15;97067.88;5041733;28;20041;-68
2023/09/06 06:29:58;;;;;;;7.90;5.45;;;;;;;23.61;56.32;97064.47;5040837;28;20052;-69
2023/09/06 06:32:24;;;;;;;6.20;4.50;;;;;;;24.37;54.43;97068.50;5032569;28;20148;-69
2023/09/06 06:34:54;;;;;;;6.40;4.60;;;;;;;25.14;51.10;97071.13;5039954;28;20072;-68
2023/09/06 06:37:21;;;;;;;8.18;5.10;;;;;;;24.50;50.09;97071.28;5036314;28;20123;-68
2023/09/06 06:39:47;;;;;;;8.38;5.80;;;;;;;21.58;60.46;97064.38;5039157;28;20044;-69
2023/09/06 06:42:12;;;;;;;8.85;5.28;;;;;;;21.02;68.70;97061.50;5037110;28;20041;-69
2023/09/06 06:44:37;;;;;;;7.93;5.63;;;;;;;20.83;68.52;97063.81;5042476;28;20041;-69
2023/09/06 06:47:04;;;;;;;9.52;5.20;;;;;;;22.15;63.29;97077.03;5038447;28;20127;-70
2023/09/06 06:49:30;;;;;;;8.23;5.80;;;;;;;22.08;60.82;97070.84;5038350;28;20080;-69
2023/09/06 06:51:55;;;;;;;9.18;5.65;;;;;;;21.02;67.11;97067.09;5042872;28;20068;-69
2023/09/06 06:54:21;;;;;;;10.98;6.32;;;;;;;21.15;67.37;97063.22;5028344;28;20102;-70
2023/09/06 06:56:46;;;;;;;11.15;6.63;;;;;;;20.67;68.32;97061.75;5038247;28;20099;-70
2023/09/06 06:59:13;;;;;;;9.90;5.97;;;;;;;20.78;69.17;97061.56;5040106;28;20049;-71
2023/09/06 07:01:38;;;;;;;12.10;6.35;;;;;;;22.37;61.47;97067.38;5041221;28;20045;-69
2023/09/06 07:04:04;;;;;;;10.32;5.88;;;;;;;21.22;65.97;97064.31;5037930;28;20045;-73
2023/09/06 07:06:30;;;;;;;11.95;5.82;;;;;;;21.33;62.95;97078.78;5022197;28;20052;-70
2023/09/06 07:08:56;;;;;;;11.63;6.30;;;;;;;20.86;69.96;97068.56;5039452;28;20048;-69
2023/09/06 07:11:22;;;;;;;9.48;6.72;;;;;;;20.25;71.72;97067.56;5032333;28;21670;-69
2023/09/06 07:13:49;;;;;;;9.52;6.05;;;;;;;21.73;64.44;97073.19;5023497;28;20501;-68
2023/09/06 07:16:16;;;;;;;10.35;7.10;;;;;;;19.76;72.30;97067.13;5035744;28;20051;-68
2023/09/06 07:18:42;;;;;;;7.32;5.72;;;;;;;19.97;74.47;97065.25;5038656;28;20071;-70
2023/09/06 07:21:07;;;;;;;10.35;6.05;;;;;;;20.50;71.78;97060.81;5034206;28;20393;-67
2023/09/06 07:23:32;;;;;;;13.25;6.68;;;;;;;22.43;62.78;97063.63;5041271;28;20041;-68
2023/09/06 07:25:58;;;;;;;9.52;6.32;;;;;;;20.94;69.21;97069.19;5044159;28;20044;-71
2023/09/06 07:28:23;;;;;;;9.15;5.75;;;;;;;21.75;65.38;97068.78;5035425;28;20512;-70
2023/09/06 07:30:49;;;;;;;9.23;6.18;;;;;;;23.18;60.15;97072.06;5041234;28;20481;-70
2023/09/06 07:33:15;;;;;;;11.52;6.10;;;;;;;23.53;55.53;97077.84;5036850;28;20073;-69
2023/09/06 07:35:42;;;;;;;10.65;6.38;;;;;;;21.51;63.39;97067.31;5037373;28;20045;-69
2023/09/06 07:38:07;;;;;;;10.30;5.72;;;;;;;22.80;59.48;97074.66;5035277;28;20076;-69
2023/09/06 07:40:33;;;;;;;13.20;6.60;;;;;;;22.42;61.98;97075.22;5042223;28;20083;-70
2023/09/06 07:42:58;;;;;;;10.10;6.35;;;;;;;22.59;61.92;97073.97;5041418;28;20037;-69
2023/09/06 07:45:24;;;;;;;7.57;5.07;;;;;;;24.50;56.05;97074.88;5033804;28;20044;-70
2023/09/06 07:47:51;;;;;;;10.63;5.80;;;;;;;26.52;49.22;97097.16;5040645;28;20037;-70
2023/09/06 07:50:16;;;;;;;8.10;5.45;;;;;;;22.50;58.52;97087.78;5033546;28;20136;-69
2023/09/06 07:52:42;;;;;;;8.27;6.00;;;;;;;22.88;61.33;97076.81;5039314;28;20037;-70
2023/09/06 07:55:08;;;;;;;7.88;5.25;;;;;;;25.37;53.24;97083.91;5036654;28;20044;-70
2023/09/06 07:57:33;;;;;;;8.90;5.97;;;;;;;24.52;53.32;97088.41;5040666;28;20063;-70
2023/09/06 07:59:59;;;;;;;10.82;5.68;;;;;;;24.23;53.01;97086.53;5049118;28;20049;-70
2023/09/06 08:02:24;;;;;;;7.90;5.55;;;;;;;25.48;51.86;97095.53;5033429;28;20678;-69
2023/09/06 08:04:52;;;;;;;12.70;6.15;;;;;;;26.48;47.82;97104.13;5040367;28;20048;-69
2023/09/06 08:07:18;;;;;;;7.53;5.50;;;;;;;26.17;47.98;97093.75;5032627;28;20044;-70
2023/09/06 08:09:43;;;;;;;10.82;5.80;;;;;;;22.68;59.88;97092.91;5038671;28;20040;-71
2023/09/06 08:12:09;;;;;;;10.27;5.85;;;;;;;25.00;51.86;97098.41;5035733;28;20087;-69
2023/09/06 08:14:34;;;;;;;7.45;5.03;;;;;;;26.16;49.19;97094.97;5038421;28;20497;-70
2023/09/06 08:17:00;;;;;;;9.82;5.57;;;;;;;26.35;47.43;97098.66;5038182;28;20049;-70
2023/09/06 08:19:25;;;;;;;7.35;5.10;;;;;;;28.58;42.55;97103.66;5028908;28;20049;-71
2023/09/06 08:21:51;;;;;;;8.07;5.13;;;;;;;28.59;41.51;97113.69;5040962;28;20096;-70
2023/09/06 08:24:17;;;;;;;10.25;5.78;;;;;;;27.33;43.57;97112.25;5034336;28;20044;-70
2023/09/06 08:26:43;;;;;;;10.02;5.82;;;;;;;26.94;46.04;97109.88;5041112;28;20052;-72
2023/09/06 08:29:08;;;;;;;10.80;4.82;;;;;;;28.03;44.02;97103.88;5027947;28;20037;-73
2023/09/06 08:31:34;;;;;;;7.65;5.30;;;;;;;26.88;46.26;97106.94;5031763;28;20080;-71
2023/09/06 08:33:59;;;;;;;10.23;5.53;;;;;;;28.09;42.13;97121.69;5046865;28;20049;-72
2023/09/06 08:36:26;;;;;;;6.07;4.60;;;;;;;28.08;43.99;97114.50;5034181;28;20051;-72
2023/09/06 08:38:52;;;;;;;8.32;4.97;;;;;;;28.37;42.59;97115.94;5040647;28;20053;-71
2023/09/06 08:41:20;;;;;;;9.18;6.07;;;;;;;26.70;44.66;97104.06;5032570;28;20110;-70
2023/09/06 08:43:46;;;;;;;10.50;5.85;;;;;;;24.85;51.17;97086.13;5040009;28;20091;-70
2023/09/06 08:46:17;;;;;;;10.07;5.53;;;;;;;26.56;48.63;97097.00;5031916;28;20049;-73
2023/09/06 08:48:44;;;;;;;14.38;5.88;;;;;;;26.87;47.09;97087.72;5038740;28;20037;-71
2023/09/06 08:51:11;;;;;;;10.25;5.85;;;;;;;27.84;45.75;97089.06;5035273;28;20041;-71
2023/09/06 08:53:40;;;;;;;10.65;5.53;;;;;;;26.35;47.13;97083.84;5043908;28;20076;-71
2023/09/06 08:56:06;;;;;;;9.55;6.10;;;;;;;24.04;54.33;97080.75;5037670;28;20531;-71
2023/09/06 08:58:33;;;;;;;9.05;5.88;;;;;;;24.67;54.87;97077.53;5039920;28;20060;-70
2023/09/06 09:00:58;;;;;;;7.82;5.40;;;;;;;27.56;47.07;97083.47;5037558;28;20086;-71
2023/09/06 09:03:24;;;;;;;9.93;6.13;;;;;;;29.09;43.43;97087.03;5035007;28;20067;-71
2023/09/06 09:05:49;;;;;;;10.82;5.45;;;;;;;28.26;43.95;97087.53;5038339;28;20456;-72
2023/09/06 09:08:14;;;;;;;7.53;5.45;;;;;;;29.14;42.33;97095.63;5034815;28;20048;-72
2023/09/06 09:10:40;;;;;;;10.63;6.05;;;;;;;29.36;41.63;97089.63;5049082;28;20045;-72
2023/09/06 09:13:10;;;;;;;8.27;4.95;;;;;;;30.02;39.93;97099.03;5040282;28;20423;-71
2023/09/06 09:15:36;;;;;;;9.25;5.63;;;;;;;30.46;39.10;97097.44;5044606;28;20137;-72
2023/09/06 09:18:12;;;;;;;11.05;5.60;;;;;;;26.19;46.69;97091.25;5043835;28;20139;-72
2023/09/06 09:20:40;;;;;;;10.43;5.63;;;;;;;26.58;48.74;97091.69;5040564;28;20114;-71
2023/09/06 09:23:10;;;;;;;26.17;9.35;;;;;;;28.91;44.61;97087.94;5034171;28;20489;-71
2023/09/06 09:25:46;;;;;;;17.90;9.70;;;;;;;30.10;41.72;97088.88;5022435;28;20090;-72
2023/09/06 09:28:14;;;;;;;11.07;6.60;;;;;;;29.34;42.27;97080.88;5025407;28;20109;-71
2023/09/06 09:30:40;;;;;;;11.47;5.67;;;;;;;29.87;42.18;97081.31;5042505;28;20064;-72
2023/09/06 09:33:05;;;;;;;29.25;9.98;;;;;;;30.56;40.00;97081.13;5034933;28;20505;-72
2023/09/06 09:35:32;;;;;;;8.38;5.13;;;;;;;29.44;42.81;97073.13;5036336;28;20041;-73
2023/09/06 09:37:59;;;;;;;9.85;5.22;;;;;;;27.85;45.46;97070.91;5043854;28;20063;-72
2023/09/06 09:40:32;;;;;;;10.82;5.72;;;;;;;29.09;43.54;97073.72;5037007;28;20040;-73
2023/09/06 09:43:01;;;;;;;8.85;5.35;;;;;;;29.76;41.40;97078.31;5045980;28;20128;-72
2023/09/06 09:45:30;;;;;;;12.38;6.00;;;;;;;28.18;44.62;97064.53;5025400;28;20063;-70
2023/09/06 09:47:57;;;;;;;7.07;4.70;;;;;;;29.99;41.98;97074.59;5042814;28;20132;-72
2023/09/06 09:50:25;;;;;;;6.63;4.82;;;;;;;30.35;40.62;97069.03;5033526;28;20140;-73
2023/09/06 09:52:51;;;;;;;12.02;6.25;;;;;;;29.22;42.25;97067.06;5038541;28;20041;-70
2023/09/06 09:55:22;;;;;;;11.55;6.50;;;;;;;25.27;51.73;97046.63;5055848;28;20052;-71
2023/09/06 09:57:48;;;;;;;8.32;5.75;;;;;;;26.31;51.70;97039.81;5057090;28;20036;-72
2023/09/06 10:00:14;;;;;;;10.43;5.53;;;;;;;27.63;48.50;97037.38;5051164;28;20487;-71
2023/09/06 10:02:45;;;;;;;6.75;4.95;;;;;;;30.35;43.00;97047.19;5056153;28;20040;-72
2023/09/06 10:05:21;;;;;;;10.15;5.07;;;;;;;30.04;42.13;97039.25;5057969;28;20131;-71
2023/09/06 10:07:48;;;;;;;8.63;5.57;;;;;;;28.37;46.09;97034.25;5043715;28;20139;-71
2023/09/06 10:10:13;;;;;;;9.68;5.72;;;;;;;30.50;41.92;97044.31;5039500;28;20131;-71
2023/09/06 10:12:44;;;;;;;8.15;4.90;;;;;;;31.14;40.57;97039.72;5061211;28;20055;-72
2023/09/06 10:15:13;;;;;;;9.70;6.13;;;;;;;26.98;49.01;97040.25;5037009;28;20385;-72
2023/09/06 10:17:40;;;;;;;7.65;5.28;;;;;;;28.12;48.65;97030.63;5045965;28;20036;-71
2023/09/06 10:20:12;;;;;;;10.10;5.55;;;;;;;29.97;44.52;97043.25;5055923;28;20032;-73
2023/09/06 10:22:41;;;;;;;7.75;5.05;;;;;;;30.35;42.53;97047.19;5044979;28;20043;-71
2023/09/06 10:25:08;;;;;;;;;;;;;;;26.64;51.90;97036.47;5057048;28;20044;-71
2023/09/06 10:27:34;;;;;;;13.00;6.15;;;;;;;28.52;48.97;97037.13;5029542;28;19912;-71
2023/09/06 10:29:59;;;;;;;8.40;5.75;;;;;;;28.77;47.43;97027.44;5037686;28;20044;-72
2023/09/06 10:32:39;;;;;;;10.95;5.28;;;;;;;28.17;50.25;97024.34;5035431;28;20575;-71
2023/09/06 10:35:22;;;;;;;7.03;4.75;;;;;;;29.32;47.26;97029.03;5034991;28;20048;-72
2023/09/06 10:38:05;;;;;;;8.95;5.30;;;;;;;29.84;46.01;97028.69;5030808;28;20500;-71
2023/09/06 10:40:51;;;;;;;9.98;5.15;;;;;;;30.36;44.81;97034.63;5035885;28;20033;-71
2023/09/06 10:43:19;;;;;;;10.65;5.88;;;;;;;28.54;48.00;97027.00;5032701;28;20041;-71
2023/09/06 10:46:13;;;;;;;9.95;5.72;;;;;;;27.87;50.57;97020.53;5039303;28;20029;-71
2023/09/06 10:48:39;;;;;;;9.77;5.32;;;;;;;28.46;49.77;97016.53;4994027;28;20128;-71
2023/09/06 10:51:11;;;;;;;9.93;4.95;;;;;;;29.52;48.02;97017.09;5039763;28;20068;-72
2023/09/06 10:53:37;;;;;;;8.55;4.90;;;;;;;29.95;46.34;97022.44;5024215;28;20128;-71
2023/09/06 10:56:05;;;;;;;8.80;5.13;;;;;;;29.39;47.75;97013.75;5038481;28;20140;-73
2023/09/06 10:58:33;;;;;;;10.63;5.88;;;;;;;29.12;47.17;97016.34;4997944;28;20059;-73
2023/09/06 11:01:16;;;;;;;8.73;5.65;;;;;;;29.14;47.85;97022.31;5036490;28;20431;-73
2023/09/06 11:03:52;;;;;;;19.50;7.95;;;;;;;28.68;50.16;97004.97;5059965;28;20036;-71
2023/09/06 11:06:20;;;;;;;8.73;5.10;;;;;;;28.18;50.19;97005.41;5055807;28;20041;-71
2023/09/06 11:08:47;;;;;;;8.07;5.25;;;;;;;28.45;50.64;97003.69;5062505;28;20033;-72
2023/09/06 11:11:14;;;;;;;10.63;5.93;;;;;;;27.88;52.43;96993.19;5055030;28;20097;-73
2023/09/06 11:13:41;;;;;;;8.63;5.47;;;;;;;27.84;52.79;97001.81;5059613;28;20047;-70
2023/09/06 11:16:12;;;;;;;11.80;6.60;;;;;;;27.70;53.07;97003.28;5052250;28;20485;-73
2023/09/06 11:18:47;;;;;;;22.83;9.48;;;;;;;27.70;54.58;96999.69;5059976;28;20052;-73
2023/09/06 11:21:20;;;;;;;8.45;5.50;;;;;;;27.63;54.23;96997.97;5051962;28;20085;-74
2023/09/06 11:23:47;;;;;;;9.80;5.32;;;;;;;27.71;54.00;96993.56;5059580;28;20443;-73
2023/09/06 11:26:12;;;;;;;8.85;5.40;;;;;;;27.79;53.10;96994.03;5047331;28;20048;-70
2023/09/06 11:28:40;;;;;;;12.48;5.55;;;;;;;27.87;53.37;96995.22;5041381;28;20507;-70
2023/09/06 11:31:23;;;;;;;9.82;5.15;;;;;;;27.96;52.92;96988.81;5037364;28;20114;-71